DAL190 KATL-KMSY
Flight info
| Callsign | DAL190 |
|---|---|
| Flight time | 1h 10m |
| Altitude | 34000 |
| Route | POUNC2 GRGIA SJI MNSTR1 |
| Aircraft | A21N/M-SDE2E3FGHIRWXY/LB1 |
Departure
| Time | 2026-05-07 23:11 |
|---|---|
| Airport | Hartsfield Jackson Atlanta International Airport (KATL) |
Arrival
| Time | 2026-05-08 00:21 |
|---|---|
| Airport | Louis Armstrong New Orleans International Airport (KMSY) |
| Time | Latitude | Longitude | Altitude | Speed | Heading |
|---|---|---|---|---|---|
| 2026-05-07 21:27 | 33.63799 | -84.43970 | 1041 ft | 0 kts | 90° |
| 2026-05-07 22:58 | 33.63800 | -84.43997 | 1041 ft | 4 kts | 91° |
| 2026-05-07 22:58 | 33.63796 | -84.44028 | 1041 ft | 4 kts | 63° |
| 2026-05-07 22:59 | 33.63780 | -84.44049 | 1041 ft | 4 kts | 18° |
| 2026-05-07 22:59 | 33.63769 | -84.44052 | 1041 ft | 1 kts | 0° |
| 2026-05-07 23:02 | 33.63775 | -84.44052 | 1041 ft | 3 kts | 0° |
| 2026-05-07 23:02 | 33.63809 | -84.44051 | 1041 ft | 7 kts | 1° |
| 2026-05-07 23:03 | 33.63872 | -84.44051 | 1041 ft | 11 kts | 360° |
| 2026-05-07 23:03 | 33.63955 | -84.44051 | 1041 ft | 13 kts | 360° |
| 2026-05-07 23:03 | 33.64054 | -84.44051 | 1041 ft | 15 kts | 0° |
| 2026-05-07 23:03 | 33.64168 | -84.44049 | 1041 ft | 17 kts | 0° |
| 2026-05-07 23:04 | 33.64272 | -84.44050 | 1041 ft | 11 kts | 359° |
| 2026-05-07 23:04 | 33.64329 | -84.44051 | 1041 ft | 8 kts | 360° |
| 2026-05-07 23:04 | 33.64392 | -84.44046 | 1041 ft | 10 kts | 20° |
| 2026-05-07 23:04 | 33.64430 | -84.43968 | 1041 ft | 13 kts | 82° |
| 2026-05-07 23:05 | 33.64444 | -84.43853 | 1041 ft | 15 kts | 82° |
| 2026-05-07 23:05 | 33.64459 | -84.43720 | 1041 ft | 17 kts | 87° |
| 2026-05-07 23:05 | 33.64460 | -84.43568 | 1041 ft | 19 kts | 91° |
| 2026-05-07 23:05 | 33.64458 | -84.43400 | 1041 ft | 21 kts | 90° |
| 2026-05-07 23:06 | 33.64460 | -84.43217 | 1041 ft | 23 kts | 90° |
| 2026-05-07 23:06 | 33.64460 | -84.43019 | 1041 ft | 25 kts | 90° |
| 2026-05-07 23:06 | 33.64460 | -84.42831 | 1041 ft | 18 kts | 89° |
| 2026-05-07 23:06 | 33.64470 | -84.42671 | 1041 ft | 20 kts | 90° |
| 2026-05-07 23:07 | 33.64469 | -84.42496 | 1041 ft | 22 kts | 90° |
| 2026-05-07 23:07 | 33.64469 | -84.42306 | 1041 ft | 22 kts | 90° |
| 2026-05-07 23:07 | 33.64526 | -84.42149 | 1040 ft | 22 kts | 60° |
| 2026-05-07 23:07 | 33.64542 | -84.41966 | 1041 ft | 23 kts | 89° |
| 2026-05-07 23:08 | 33.64543 | -84.41762 | 1041 ft | 25 kts | 90° |
| 2026-05-07 23:08 | 33.64543 | -84.41544 | 1041 ft | 27 kts | 90° |
| 2026-05-07 23:08 | 33.64543 | -84.41312 | 1041 ft | 29 kts | 90° |
| 2026-05-07 23:08 | 33.64543 | -84.41065 | 1041 ft | 30 kts | 90° |
| 2026-05-07 23:09 | 33.64543 | -84.40896 | 1040 ft | 14 kts | 90° |
| 2026-05-07 23:09 | 33.64567 | -84.40779 | 1040 ft | 16 kts | 74° |
| 2026-05-07 23:09 | 33.64570 | -84.40657 | 1040 ft | 13 kts | 90° |
| 2026-05-07 23:09 | 33.64613 | -84.40573 | 1039 ft | 15 kts | 0° |
| 2026-05-07 23:10 | 33.64674 | -84.40581 | 1038 ft | 7 kts | 311° |
| 2026-05-07 23:10 | 33.64679 | -84.40647 | 1038 ft | 9 kts | 270° |
| 2026-05-07 23:10 | 33.64679 | -84.40864 | 1041 ft | 60 kts | 270° |
| 2026-05-07 23:10 | 33.64678 | -84.41660 | 1042 ft | 127 kts | 270° |
| 2026-05-07 23:11 | 33.64677 | -84.42892 | 1162 ft | 158 kts | 268° |
| 2026-05-07 23:11 | 33.64644 | -84.44200 | 1857 ft | 157 kts | 275° |
| 2026-05-07 23:11 | 33.64684 | -84.45516 | 2522 ft | 163 kts | 272° |
| 2026-05-07 23:11 | 33.64732 | -84.46941 | 3049 ft | 179 kts | 278° |
| 2026-05-07 23:12 | 33.65079 | -84.48438 | 3647 ft | 195 kts | 287° |
| 2026-05-07 23:12 | 33.65412 | -84.50096 | 4262 ft | 216 kts | 282° |
| 2026-05-07 23:12 | 33.65766 | -84.51955 | 4783 ft | 241 kts | 283° |
| 2026-05-07 23:12 | 33.66153 | -84.53953 | 5618 ft | 248 kts | 282° |
| 2026-05-07 23:13 | 33.66544 | -84.55984 | 6641 ft | 251 kts | 281° |
| 2026-05-07 23:13 | 33.66935 | -84.58021 | 7665 ft | 251 kts | 281° |
| 2026-05-07 23:13 | 33.67307 | -84.60065 | 8667 ft | 251 kts | 280° |
| 2026-05-07 23:13 | 33.67651 | -84.62127 | 9650 ft | 253 kts | 280° |
| 2026-05-07 23:14 | 33.68001 | -84.64218 | 10382 ft | 263 kts | 280° |
| 2026-05-07 23:14 | 33.68378 | -84.66468 | 10696 ft | 286 kts | 280° |
| 2026-05-07 23:14 | 33.68788 | -84.68896 | 11027 ft | 306 kts | 281° |
| 2026-05-07 23:14 | 33.69216 | -84.71426 | 11753 ft | 311 kts | 281° |
| 2026-05-07 23:15 | 33.69476 | -84.73993 | 12713 ft | 310 kts | 271° |
| 2026-05-07 23:15 | 33.69160 | -84.76553 | 13741 ft | 313 kts | 258° |
| 2026-05-07 23:15 | 33.68212 | -84.78931 | 14610 ft | 321 kts | 244° |
| 2026-05-07 23:15 | 33.66884 | -84.81112 | 15446 ft | 325 kts | 240° |
| 2026-05-07 23:16 | 33.65508 | -84.83271 | 16226 ft | 327 kts | 240° |
| 2026-05-07 23:16 | 33.64134 | -84.85452 | 17011 ft | 328 kts | 240° |
| 2026-05-07 23:16 | 33.62761 | -84.87647 | 17822 ft | 330 kts | 239° |
| 2026-05-07 23:16 | 33.61387 | -84.89852 | 18564 ft | 331 kts | 239° |
| 2026-05-07 23:17 | 33.60008 | -84.92073 | 19184 ft | 334 kts | 240° |
| 2026-05-07 23:17 | 33.58616 | -84.94316 | 19799 ft | 336 kts | 240° |
| 2026-05-07 23:17 | 33.57210 | -84.96579 | 20384 ft | 340 kts | 239° |
| 2026-05-07 23:17 | 33.55793 | -84.98859 | 20976 ft | 343 kts | 239° |
| 2026-05-07 23:18 | 33.54362 | -85.01160 | 21557 ft | 346 kts | 239° |
| 2026-05-07 23:18 | 33.52917 | -85.03483 | 22138 ft | 349 kts | 239° |
| 2026-05-07 23:18 | 33.51460 | -85.05826 | 22710 ft | 352 kts | 239° |
| 2026-05-07 23:18 | 33.49988 | -85.08188 | 23279 ft | 355 kts | 239° |
| 2026-05-07 23:19 | 33.48503 | -85.10569 | 23791 ft | 358 kts | 239° |
| 2026-05-07 23:19 | 33.47007 | -85.12969 | 24255 ft | 361 kts | 239° |
| 2026-05-07 23:19 | 33.45500 | -85.15384 | 24735 ft | 363 kts | 239° |
| 2026-05-07 23:19 | 33.43981 | -85.17815 | 25210 ft | 366 kts | 239° |
| 2026-05-07 23:20 | 33.42536 | -85.20314 | 25682 ft | 364 kts | 244° |
| 2026-05-07 23:20 | 33.41466 | -85.23037 | 26137 ft | 361 kts | 253° |
| 2026-05-07 23:20 | 33.40722 | -85.25902 | 26611 ft | 361 kts | 256° |
| 2026-05-07 23:20 | 33.40035 | -85.28758 | 27044 ft | 363 kts | 256° |
| 2026-05-07 23:21 | 33.39330 | -85.31673 | 27469 ft | 366 kts | 256° |
| 2026-05-07 23:21 | 33.38615 | -85.34600 | 27893 ft | 368 kts | 256° |
| 2026-05-07 23:21 | 33.37890 | -85.37544 | 28341 ft | 369 kts | 256° |
| 2026-05-07 23:21 | 33.37163 | -85.40482 | 28937 ft | 367 kts | 256° |
| 2026-05-07 23:22 | 33.36440 | -85.43401 | 29545 ft | 365 kts | 256° |
| 2026-05-07 23:22 | 33.35721 | -85.46299 | 30111 ft | 363 kts | 256° |
| 2026-05-07 23:22 | 33.35005 | -85.49182 | 30580 ft | 361 kts | 256° |
| 2026-05-07 23:22 | 33.34292 | -85.52047 | 31046 ft | 358 kts | 256° |
| 2026-05-07 23:23 | 33.33581 | -85.54900 | 31498 ft | 357 kts | 256° |
| 2026-05-07 23:23 | 33.32874 | -85.57732 | 31963 ft | 354 kts | 256° |
| 2026-05-07 23:23 | 33.32172 | -85.60544 | 32410 ft | 352 kts | 255° |
| 2026-05-07 23:23 | 33.31474 | -85.63339 | 32852 ft | 350 kts | 255° |
| 2026-05-07 23:24 | 33.30778 | -85.66124 | 33259 ft | 348 kts | 255° |
| 2026-05-07 23:24 | 33.30085 | -85.68889 | 33655 ft | 347 kts | 255° |
| 2026-05-07 23:24 | 33.29394 | -85.71645 | 33951 ft | 346 kts | 255° |
| 2026-05-07 23:25 | 33.27998 | -85.77201 | 34021 ft | 351 kts | 255° |
| 2026-05-07 23:25 | 33.26586 | -85.82782 | 34003 ft | 351 kts | 255° |
| 2026-05-07 23:26 | 33.25174 | -85.88365 | 33996 ft | 351 kts | 255° |
| 2026-05-07 23:26 | 33.23769 | -85.93958 | 33994 ft | 352 kts | 255° |
| 2026-05-07 23:27 | 33.21652 | -86.02331 | 33993 ft | 350 kts | 255° |
| 2026-05-07 23:27 | 33.20242 | -86.07888 | 33995 ft | 349 kts | 255° |
| 2026-05-07 23:28 | 33.18826 | -86.13445 | 33998 ft | 350 kts | 255° |
| 2026-05-07 23:28 | 33.17403 | -86.19014 | 34001 ft | 351 kts | 255° |
| 2026-05-07 23:29 | 33.15981 | -86.24586 | 33999 ft | 351 kts | 255° |
| 2026-05-07 23:29 | 33.14552 | -86.30168 | 34038 ft | 351 kts | 255° |
| 2026-05-07 23:30 | 33.13363 | -86.34800 | 34036 ft | 351 kts | 255° |
| 2026-05-07 23:30 | 33.11932 | -86.40379 | 34037 ft | 352 kts | 255° |
| 2026-05-07 23:31 | 33.10270 | -86.46843 | 34001 ft | 352 kts | 255° |
| 2026-05-07 23:31 | 33.09042 | -86.51515 | 34016 ft | 352 kts | 253° |
| 2026-05-07 23:32 | 33.06694 | -86.56679 | 34012 ft | 362 kts | 238° |
| 2026-05-07 23:32 | 33.02825 | -86.60721 | 34004 ft | 380 kts | 223° |
| 2026-05-07 23:33 | 32.98376 | -86.64143 | 33997 ft | 380 kts | 223° |
| 2026-05-07 23:33 | 32.93949 | -86.67581 | 33990 ft | 380 kts | 223° |
| 2026-05-07 23:34 | 32.89528 | -86.71031 | 33986 ft | 380 kts | 223° |
| 2026-05-07 23:34 | 32.85134 | -86.74455 | 33986 ft | 380 kts | 223° |
| 2026-05-07 23:35 | 32.80715 | -86.77899 | 33974 ft | 380 kts | 223° |
| 2026-05-07 23:35 | 32.76299 | -86.81338 | 33972 ft | 380 kts | 223° |
| 2026-05-07 23:36 | 32.71878 | -86.84788 | 33968 ft | 380 kts | 223° |
| 2026-05-07 23:36 | 32.67462 | -86.88227 | 33971 ft | 380 kts | 223° |
| 2026-05-07 23:37 | 32.63044 | -86.91657 | 33973 ft | 380 kts | 223° |
| 2026-05-07 23:37 | 32.58638 | -86.95075 | 33980 ft | 378 kts | 223° |
| 2026-05-07 23:38 | 32.54236 | -86.98494 | 33965 ft | 379 kts | 223° |
| 2026-05-07 23:38 | 32.49824 | -87.01911 | 33978 ft | 379 kts | 223° |
| 2026-05-07 23:39 | 32.45409 | -87.05328 | 33978 ft | 379 kts | 223° |
| 2026-05-07 23:39 | 32.40992 | -87.08738 | 33979 ft | 379 kts | 222° |
| 2026-05-07 23:40 | 32.36577 | -87.12148 | 33989 ft | 379 kts | 222° |
| 2026-05-07 23:40 | 32.32160 | -87.15550 | 34027 ft | 379 kts | 222° |
| 2026-05-07 23:41 | 32.27713 | -87.18978 | 33978 ft | 383 kts | 222° |
| 2026-05-07 23:41 | 32.23243 | -87.22410 | 33992 ft | 383 kts | 222° |
| 2026-05-07 23:42 | 32.18772 | -87.25840 | 34013 ft | 383 kts | 222° |
| 2026-05-07 23:42 | 32.14299 | -87.29271 | 34009 ft | 383 kts | 222° |
| 2026-05-07 23:43 | 32.09829 | -87.32699 | 34004 ft | 383 kts | 222° |
| 2026-05-07 23:43 | 32.05364 | -87.36118 | 34012 ft | 382 kts | 222° |
| 2026-05-07 23:44 | 32.00880 | -87.39546 | 33998 ft | 386 kts | 222° |
| 2026-05-07 23:44 | 31.96372 | -87.42984 | 34021 ft | 386 kts | 222° |
| 2026-05-07 23:45 | 31.91869 | -87.46422 | 34028 ft | 386 kts | 222° |
| 2026-05-07 23:45 | 31.87392 | -87.49836 | 34029 ft | 385 kts | 222° |
| 2026-05-07 23:46 | 31.82892 | -87.53263 | 34032 ft | 385 kts | 222° |
| 2026-05-07 23:46 | 31.78391 | -87.56686 | 34034 ft | 385 kts | 222° |
| 2026-05-07 23:47 | 31.73882 | -87.60107 | 34022 ft | 386 kts | 221° |
| 2026-05-07 23:47 | 31.69369 | -87.63535 | 34030 ft | 386 kts | 221° |
| 2026-05-07 23:48 | 31.64849 | -87.66952 | 34030 ft | 386 kts | 221° |
| 2026-05-07 23:48 | 31.60329 | -87.70372 | 34030 ft | 387 kts | 221° |
| 2026-05-07 23:49 | 31.55802 | -87.73787 | 34031 ft | 387 kts | 221° |
| 2026-05-07 23:49 | 31.51273 | -87.77200 | 34030 ft | 387 kts | 221° |
| 2026-05-07 23:50 | 31.46739 | -87.80620 | 34015 ft | 388 kts | 220° |
| 2026-05-07 23:50 | 31.42188 | -87.84048 | 34028 ft | 389 kts | 220° |
| 2026-05-07 23:51 | 31.37636 | -87.87467 | 34029 ft | 389 kts | 220° |
| 2026-05-07 23:51 | 31.33086 | -87.90879 | 34028 ft | 388 kts | 220° |
| 2026-05-07 23:52 | 31.28535 | -87.94289 | 34033 ft | 388 kts | 220° |
| 2026-05-07 23:52 | 31.23987 | -87.97695 | 34027 ft | 388 kts | 220° |
| 2026-05-07 23:53 | 31.19431 | -88.01108 | 34010 ft | 389 kts | 220° |
| 2026-05-07 23:53 | 31.14863 | -88.04519 | 34025 ft | 390 kts | 220° |
| 2026-05-07 23:54 | 31.10293 | -88.07927 | 34026 ft | 390 kts | 220° |
| 2026-05-07 23:54 | 31.05718 | -88.11342 | 34027 ft | 391 kts | 219° |
| 2026-05-07 23:55 | 31.01140 | -88.14750 | 34023 ft | 391 kts | 219° |
| 2026-05-07 23:55 | 30.96558 | -88.18164 | 34020 ft | 391 kts | 219° |
| 2026-05-07 23:56 | 30.91969 | -88.21583 | 33999 ft | 393 kts | 219° |
| 2026-05-07 23:56 | 30.87349 | -88.25009 | 34015 ft | 394 kts | 219° |
| 2026-05-07 23:57 | 30.82757 | -88.28419 | 34017 ft | 394 kts | 219° |
| 2026-05-07 23:57 | 30.78135 | -88.31842 | 34020 ft | 394 kts | 219° |
| 2026-05-07 23:58 | 30.73683 | -88.35482 | 34018 ft | 387 kts | 228° |
| 2026-05-07 23:58 | 30.70542 | -88.40414 | 34018 ft | 378 kts | 244° |
| 2026-05-07 23:59 | 30.68182 | -88.45863 | 34016 ft | 378 kts | 245° |
| 2026-05-07 23:59 | 30.65806 | -88.51304 | 34005 ft | 378 kts | 245° |
| 2026-05-08 00:00 | 30.63404 | -88.56726 | 34005 ft | 377 kts | 245° |
| 2026-05-08 00:00 | 30.61006 | -88.62148 | 34004 ft | 377 kts | 245° |
| 2026-05-08 00:01 | 30.58596 | -88.67561 | 34003 ft | 378 kts | 244° |
| 2026-05-08 00:01 | 30.56196 | -88.72960 | 33821 ft | 372 kts | 245° |
| 2026-05-08 00:02 | 30.55010 | -88.75629 | 33481 ft | 372 kts | 245° |
| 2026-05-08 00:02 | 30.53821 | -88.78299 | 33146 ft | 372 kts | 245° |
| 2026-05-08 00:02 | 30.52633 | -88.80951 | 32546 ft | 369 kts | 245° |
| 2026-05-08 00:02 | 30.51449 | -88.83592 | 31838 ft | 369 kts | 245° |
| 2026-05-08 00:03 | 30.50266 | -88.86242 | 31120 ft | 370 kts | 245° |
| 2026-05-08 00:03 | 30.49084 | -88.88890 | 30443 ft | 370 kts | 245° |
| 2026-05-08 00:03 | 30.47907 | -88.91534 | 29749 ft | 368 kts | 245° |
| 2026-05-08 00:03 | 30.46730 | -88.94166 | 29007 ft | 367 kts | 246° |
| 2026-05-08 00:04 | 30.45577 | -88.96745 | 28344 ft | 364 kts | 245° |
| 2026-05-08 00:04 | 30.44416 | -88.99332 | 27700 ft | 360 kts | 245° |
| 2026-05-08 00:04 | 30.43269 | -89.01899 | 27058 ft | 358 kts | 246° |
| 2026-05-08 00:04 | 30.42125 | -89.04447 | 26416 ft | 355 kts | 246° |
| 2026-05-08 00:05 | 30.40992 | -89.06982 | 25812 ft | 353 kts | 246° |
| 2026-05-08 00:05 | 30.39977 | -89.09552 | 25220 ft | 349 kts | 249° |
| 2026-05-08 00:05 | 30.39024 | -89.12136 | 24588 ft | 348 kts | 250° |
| 2026-05-08 00:05 | 30.38079 | -89.14715 | 23977 ft | 348 kts | 250° |
| 2026-05-08 00:06 | 30.37136 | -89.17280 | 23324 ft | 345 kts | 250° |
| 2026-05-08 00:06 | 30.36188 | -89.19833 | 22653 ft | 344 kts | 249° |
| 2026-05-08 00:06 | 30.35246 | -89.22371 | 21998 ft | 342 kts | 249° |
| 2026-05-08 00:06 | 30.34313 | -89.24895 | 21351 ft | 341 kts | 249° |
| 2026-05-08 00:07 | 30.33375 | -89.27407 | 20695 ft | 340 kts | 247° |
| 2026-05-08 00:07 | 30.32243 | -89.29826 | 19742 ft | 345 kts | 242° |
| 2026-05-08 00:07 | 30.31014 | -89.32233 | 18729 ft | 348 kts | 241° |
| 2026-05-08 00:07 | 30.29779 | -89.34639 | 17729 ft | 346 kts | 241° |
| 2026-05-08 00:08 | 30.28558 | -89.37029 | 16729 ft | 344 kts | 241° |
| 2026-05-08 00:08 | 30.27345 | -89.39410 | 15757 ft | 343 kts | 241° |
| 2026-05-08 00:08 | 30.26135 | -89.41785 | 14819 ft | 342 kts | 241° |
| 2026-05-08 00:08 | 30.24929 | -89.44157 | 13902 ft | 342 kts | 241° |
| 2026-05-08 00:09 | 30.23726 | -89.46523 | 12982 ft | 340 kts | 241° |
| 2026-05-08 00:09 | 30.22543 | -89.48845 | 12339 ft | 330 kts | 241° |
| 2026-05-08 00:09 | 30.21396 | -89.51094 | 11807 ft | 319 kts | 242° |
| 2026-05-08 00:09 | 30.20279 | -89.53296 | 11332 ft | 318 kts | 242° |
| 2026-05-08 00:10 | 30.19163 | -89.55496 | 10924 ft | 313 kts | 242° |
| 2026-05-08 00:10 | 30.18082 | -89.57621 | 10695 ft | 300 kts | 242° |
| 2026-05-08 00:10 | 30.17053 | -89.59649 | 10525 ft | 286 kts | 242° |
| 2026-05-08 00:10 | 30.16069 | -89.61583 | 10229 ft | 274 kts | 242° |
| 2026-05-08 00:11 | 30.15117 | -89.63451 | 9841 ft | 268 kts | 242° |
| 2026-05-08 00:11 | 30.14174 | -89.65298 | 9400 ft | 266 kts | 242° |
| 2026-05-08 00:11 | 30.13234 | -89.67141 | 8971 ft | 267 kts | 242° |
| 2026-05-08 00:11 | 30.12283 | -89.68998 | 8568 ft | 270 kts | 242° |
| 2026-05-08 00:12 | 30.11327 | -89.70866 | 8168 ft | 271 kts | 242° |
| 2026-05-08 00:12 | 30.10367 | -89.72747 | 7784 ft | 272 kts | 241° |
| 2026-05-08 00:12 | 30.09402 | -89.74633 | 7413 ft | 273 kts | 241° |
| 2026-05-08 00:12 | 30.08434 | -89.76524 | 7027 ft | 274 kts | 241° |
| 2026-05-08 00:13 | 30.07466 | -89.78405 | 6644 ft | 271 kts | 241° |
| 2026-05-08 00:13 | 30.06509 | -89.80266 | 6249 ft | 268 kts | 241° |
| 2026-05-08 00:13 | 30.05561 | -89.82110 | 5848 ft | 267 kts | 241° |
| 2026-05-08 00:13 | 30.04624 | -89.83934 | 5582 ft | 260 kts | 241° |
| 2026-05-08 00:14 | 30.03724 | -89.85689 | 5430 ft | 248 kts | 241° |
| 2026-05-08 00:14 | 30.02864 | -89.87359 | 5303 ft | 236 kts | 242° |
| 2026-05-08 00:14 | 30.02047 | -89.88944 | 5148 ft | 226 kts | 242° |
| 2026-05-08 00:14 | 30.01258 | -89.90485 | 4873 ft | 221 kts | 242° |
| 2026-05-08 00:15 | 30.00478 | -89.92009 | 4520 ft | 220 kts | 242° |
| 2026-05-08 00:15 | 29.99699 | -89.93534 | 4149 ft | 223 kts | 241° |
| 2026-05-08 00:15 | 29.98907 | -89.95075 | 3798 ft | 224 kts | 241° |
| 2026-05-08 00:15 | 29.98119 | -89.96605 | 3440 ft | 226 kts | 240° |
| 2026-05-08 00:16 | 29.97310 | -89.98173 | 3106 ft | 228 kts | 240° |
| 2026-05-08 00:16 | 29.96490 | -89.99778 | 2981 ft | 229 kts | 240° |
| 2026-05-08 00:16 | 29.95674 | -90.01360 | 2982 ft | 229 kts | 240° |
| 2026-05-08 00:16 | 29.94857 | -90.02944 | 2986 ft | 230 kts | 240° |
| 2026-05-08 00:17 | 29.94350 | -90.04016 | 2982 ft | 230 kts | 248° |
| 2026-05-08 00:17 | 29.94096 | -90.05788 | 2975 ft | 219 kts | 276° |
| 2026-05-08 00:17 | 29.94385 | -90.07432 | 2955 ft | 205 kts | 288° |
| 2026-05-08 00:17 | 29.94837 | -90.08987 | 2791 ft | 203 kts | 290° |
| 2026-05-08 00:18 | 29.95427 | -90.11044 | 2464 ft | 204 kts | 289° |
| 2026-05-08 00:18 | 29.95813 | -90.12548 | 2260 ft | 186 kts | 288° |
| 2026-05-08 00:18 | 29.96050 | -90.13504 | 2089 ft | 181 kts | 288° |
| 2026-05-08 00:18 | 29.96385 | -90.14877 | 1838 ft | 173 kts | 288° |
| 2026-05-08 00:19 | 29.96707 | -90.16176 | 1621 ft | 162 kts | 289° |
| 2026-05-08 00:19 | 29.96988 | -90.17326 | 1393 ft | 141 kts | 289° |
| 2026-05-08 00:19 | 29.97257 | -90.18401 | 1191 ft | 139 kts | 289° |
| 2026-05-08 00:19 | 29.97521 | -90.19466 | 1009 ft | 137 kts | 289° |
| 2026-05-08 00:20 | 29.97807 | -90.20513 | 833 ft | 136 kts | 290° |
| 2026-05-08 00:20 | 29.98070 | -90.21564 | 721 ft | 136 kts | 288° |
| 2026-05-08 00:20 | 29.98302 | -90.22605 | 507 ft | 132 kts | 288° |
| 2026-05-08 00:20 | 29.98556 | -90.23618 | 328 ft | 131 kts | 289° |
| 2026-05-08 00:21 | 29.98804 | -90.24620 | 168 ft | 131 kts | 287° |
| 2026-05-08 00:21 | 29.99050 | -90.25634 | 14 ft | 126 kts | 286° |
| 2026-05-08 00:21 | 29.99217 | -90.26329 | 12 ft | 48 kts | 286° |
| 2026-05-08 00:21 | 29.99253 | -90.26463 | 14 ft | 5 kts | 304° |
| 2026-05-08 00:22 | 29.99295 | -90.26473 | 13 ft | 7 kts | 8° |
| 2026-05-08 00:22 | 29.99353 | -90.26454 | 13 ft | 10 kts | 15° |
| 2026-05-08 00:22 | 29.99427 | -90.26427 | 15 ft | 13 kts | 33° |
| 2026-05-08 00:22 | 29.99444 | -90.26323 | 13 ft | 15 kts | 106° |
| 2026-05-08 00:23 | 29.99414 | -90.26201 | 13 ft | 17 kts | 104° |
| 2026-05-08 00:23 | 29.99382 | -90.26066 | 10 ft | 18 kts | 105° |
| 2026-05-08 00:23 | 29.99353 | -90.25945 | 8 ft | 14 kts | 104° |
| 2026-05-08 00:23 | 29.99299 | -90.25861 | 9 ft | 15 kts | 167° |
| 2026-05-08 00:24 | 29.99224 | -90.25776 | 10 ft | 18 kts | 102° |
| 2026-05-08 00:24 | 29.99200 | -90.25643 | 11 ft | 15 kts | 95° |
| 2026-05-08 00:24 | 29.99205 | -90.25512 | 12 ft | 18 kts | 92° |
| 2026-05-08 00:24 | 29.99198 | -90.25381 | 13 ft | 13 kts | 87° |
| 2026-05-08 00:25 | 29.99236 | -90.25275 | 13 ft | 16 kts | 46° |
| 2026-05-08 00:25 | 29.99319 | -90.25223 | 15 ft | 13 kts | 5° |
| 2026-05-08 00:25 | 29.99401 | -90.25231 | 15 ft | 10 kts | 351° |
| 2026-05-08 00:25 | 29.99429 | -90.25236 | 16 ft | 3 kts | 349° |
| 2026-05-08 00:26 | 29.99436 | -90.25255 | 15 ft | 1 kts | 267° |
| 2026-05-08 00:26 | 29.99436 | -90.25250 | 15 ft | 0 kts | 269° |
| 2026-05-08 00:26 | 29.99433 | -90.25293 | 14 ft | 6 kts | 261° |
| 2026-05-08 00:27 | 29.99430 | -90.25314 | 12 ft | 2 kts | 262° |
| 2026-05-08 00:27 | 29.99429 | -90.25322 | 12 ft | 2 kts | 262° |